sensor_id;sensor_type;location;lat;lon;timestamp;temperature;humidity
66057;DHT22;52842;52.666;5.202;2023-01-28T00:00:45;21.40;45.80
66057;DHT22;52842;52.666;5.202;2023-01-28T00:03:12;21.30;45.80
66057;DHT22;52842;52.666;5.202;2023-01-28T00:05:40;21.30;45.80
66057;DHT22;52842;52.666;5.202;2023-01-28T00:08:06;21.30;45.90
66057;DHT22;52842;52.666;5.202;2023-01-28T00:10:35;21.30;45.80
66057;DHT22;52842;52.666;5.202;2023-01-28T00:13:05;21.40;46.40
66057;DHT22;52842;52.666;5.202;2023-01-28T00:15:32;21.40;45.90
66057;DHT22;52842;52.666;5.202;2023-01-28T00:17:58;21.40;45.80
66057;DHT22;52842;52.666;5.202;2023-01-28T00:20:25;21.30;45.70
66057;DHT22;52842;52.666;5.202;2023-01-28T00:22:52;21.30;45.70
66057;DHT22;52842;52.666;5.202;2023-01-28T00:25:18;21.30;45.70
66057;DHT22;52842;52.666;5.202;2023-01-28T00:27:45;21.40;45.70
66057;DHT22;52842;52.666;5.202;2023-01-28T00:30:13;21.40;45.80
66057;DHT22;52842;52.666;5.202;2023-01-28T00:32:40;21.30;45.70
66057;DHT22;52842;52.666;5.202;2023-01-28T00:35:07;21.30;45.70
66057;DHT22;52842;52.666;5.202;2023-01-28T00:37:34;21.30;45.70
66057;DHT22;52842;52.666;5.202;2023-01-28T00:40:01;21.40;45.70
66057;DHT22;52842;52.666;5.202;2023-01-28T00:42:27;21.40;45.60
66057;DHT22;52842;52.666;5.202;2023-01-28T00:44:54;21.40;45.60
66057;DHT22;52842;52.666;5.202;2023-01-28T00:47:22;21.40;45.50
66057;DHT22;52842;52.666;5.202;2023-01-28T00:49:49;21.40;45.60
66057;DHT22;52842;52.666;5.202;2023-01-28T00:52:15;21.40;45.50
66057;DHT22;52842;52.666;5.202;2023-01-28T00:54:42;21.40;45.50
66057;DHT22;52842;52.666;5.202;2023-01-28T00:57:09;21.40;45.50
66057;DHT22;52842;52.666;5.202;2023-01-28T00:59:35;21.40;45.50
66057;DHT22;52842;52.666;5.202;2023-01-28T01:02:02;21.40;45.50
66057;DHT22;52842;52.666;5.202;2023-01-28T01:04:38;21.40;45.60
66057;DHT22;52842;52.666;5.202;2023-01-28T01:07:05;21.40;45.50
66057;DHT22;52842;52.666;5.202;2023-01-28T01:09:32;21.40;45.50
66057;DHT22;52842;52.666;5.202;2023-01-28T01:11:58;21.40;45.50
66057;DHT22;52842;52.666;5.202;2023-01-28T01:14:25;21.40;45.50
66057;DHT22;52842;52.666;5.202;2023-01-28T01:16:52;21.40;45.50
66057;DHT22;52842;52.666;5.202;2023-01-28T01:19:18;21.40;45.50
66057;DHT22;52842;52.666;5.202;2023-01-28T01:21:46;21.40;45.40
66057;DHT22;52842;52.666;5.202;2023-01-28T01:24:14;21.40;45.40
66057;DHT22;52842;52.666;5.202;2023-01-28T01:26:41;21.40;45.30
66057;DHT22;52842;52.666;5.202;2023-01-28T01:29:08;21.40;45.40
66057;DHT22;52842;52.666;5.202;2023-01-28T01:31:35;21.40;45.30
66057;DHT22;52842;52.666;5.202;2023-01-28T01:34:01;21.40;45.40
66057;DHT22;52842;52.666;5.202;2023-01-28T01:36:28;21.40;45.40
66057;DHT22;52842;52.666;5.202;2023-01-28T01:38:56;21.40;46.00
66057;DHT22;52842;52.666;5.202;2023-01-28T01:41:24;21.40;45.40
66057;DHT22;52842;52.666;5.202;2023-01-28T01:43:52;21.40;45.40
66057;DHT22;52842;52.666;5.202;2023-01-28T01:46:20;21.40;45.40
66057;DHT22;52842;52.666;5.202;2023-01-28T01:48:47;21.40;45.30
66057;DHT22;52842;52.666;5.202;2023-01-28T01:51:15;21.40;45.40
66057;DHT22;52842;52.666;5.202;2023-01-28T01:53:47;21.40;45.30
66057;DHT22;52842;52.666;5.202;2023-01-28T01:56:17;21.40;45.30
66057;DHT22;52842;52.666;5.202;2023-01-28T01:58:45;21.40;46.00
66057;DHT22;52842;52.666;5.202;2023-01-28T02:01:13;21.40;45.30
66057;DHT22;52842;52.666;5.202;2023-01-28T02:03:41;21.40;45.40
66057;DHT22;52842;52.666;5.202;2023-01-28T02:06:12;21.40;45.40
66057;DHT22;52842;52.666;5.202;2023-01-28T02:08:38;21.40;45.40
66057;DHT22;52842;52.666;5.202;2023-01-28T02:11:05;21.40;45.50
66057;DHT22;52842;52.666;5.202;2023-01-28T02:13:35;21.40;45.40
66057;DHT22;52842;52.666;5.202;2023-01-28T02:16:03;21.40;45.40
66057;DHT22;52842;52.666;5.202;2023-01-28T02:18:30;21.40;45.30
66057;DHT22;52842;52.666;5.202;2023-01-28T02:21:04;21.40;45.30
66057;DHT22;52842;52.666;5.202;2023-01-28T02:23:43;21.40;45.40
66057;DHT22;52842;52.666;5.202;2023-01-28T02:26:24;21.40;45.30
66057;DHT22;52842;52.666;5.202;2023-01-28T02:28:54;21.40;45.30
66057;DHT22;52842;52.666;5.202;2023-01-28T02:31:26;21.40;45.30
66057;DHT22;52842;52.666;5.202;2023-01-28T02:33:57;21.40;45.30
66057;DHT22;52842;52.666;5.202;2023-01-28T02:36:26;21.40;45.40
66057;DHT22;52842;52.666;5.202;2023-01-28T02:38:56;21.30;45.30
66057;DHT22;52842;52.666;5.202;2023-01-28T02:41:27;21.30;45.30
66057;DHT22;52842;52.666;5.202;2023-01-28T02:43:55;21.40;45.40
66057;DHT22;52842;52.666;5.202;2023-01-28T02:46:32;21.30;45.30
66057;DHT22;52842;52.666;5.202;2023-01-28T02:49:17;21.40;45.40
66057;DHT22;52842;52.666;5.202;2023-01-28T02:51:49;21.40;45.30
66057;DHT22;52842;52.666;5.202;2023-01-28T02:54:19;21.40;45.30
66057;DHT22;52842;52.666;5.202;2023-01-28T02:56:48;21.30;45.20
66057;DHT22;52842;52.666;5.202;2023-01-28T02:59:20;21.40;45.30
66057;DHT22;52842;52.666;5.202;2023-01-28T03:02:00;21.30;45.20
66057;DHT22;52842;52.666;5.202;2023-01-28T03:04:30;21.30;45.20
66057;DHT22;52842;52.666;5.202;2023-01-28T03:06:59;21.40;45.30
66057;DHT22;52842;52.666;5.202;2023-01-28T03:09:28;21.30;45.20
66057;DHT22;52842;52.666;5.202;2023-01-28T03:11:56;21.30;45.30
66057;DHT22;52842;52.666;5.202;2023-01-28T03:14:44;21.40;45.20
66057;DHT22;52842;52.666;5.202;2023-01-28T03:17:31;21.40;45.30
66057;DHT22;52842;52.666;5.202;2023-01-28T03:20:16;21.40;45.30
66057;DHT22;52842;52.666;5.202;2023-01-28T03:23:02;21.30;45.20
66057;DHT22;52842;52.666;5.202;2023-01-28T03:25:49;21.30;45.30
66057;DHT22;52842;52.666;5.202;2023-01-28T03:28:36;21.30;45.30
66057;DHT22;52842;52.666;5.202;2023-01-28T03:31:21;21.30;45.20
66057;DHT22;52842;52.666;5.202;2023-01-28T03:34:07;21.40;45.30
66057;DHT22;52842;52.666;5.202;2023-01-28T03:36:52;21.30;45.10
66057;DHT22;52842;52.666;5.202;2023-01-28T03:39:20;21.30;45.10
66057;DHT22;52842;52.666;5.202;2023-01-28T03:41:54;21.40;45.10
66057;DHT22;52842;52.666;5.202;2023-01-28T03:44:21;21.40;45.10
66057;DHT22;52842;52.666;5.202;2023-01-28T03:47:07;21.40;45.00
66057;DHT22;52842;52.666;5.202;2023-01-28T03:49:37;21.30;45.10
66057;DHT22;52842;52.666;5.202;2023-01-28T03:52:03;21.40;45.00
66057;DHT22;52842;52.666;5.202;2023-01-28T03:54:30;21.40;45.10
66057;DHT22;52842;52.666;5.202;2023-01-28T03:56:56;21.30;45.00
66057;DHT22;52842;52.666;5.202;2023-01-28T03:59:23;21.30;44.90
66057;DHT22;52842;52.666;5.202;2023-01-28T04:01:50;21.30;44.90
66057;DHT22;52842;52.666;5.202;2023-01-28T04:04:18;21.30;44.90
66057;DHT22;52842;52.666;5.202;2023-01-28T04:06:49;21.30;44.90
66057;DHT22;52842;52.666;5.202;2023-01-28T04:09:16;21.30;45.00
66057;DHT22;52842;52.666;5.202;2023-01-28T04:11:42;21.40;44.90
66057;DHT22;52842;52.666;5.202;2023-01-28T04:14:09;21.40;44.90
66057;DHT22;52842;52.666;5.202;2023-01-28T04:16:36;21.40;44.90
66057;DHT22;52842;52.666;5.202;2023-01-28T04:19:03;21.40;44.80
66057;DHT22;52842;52.666;5.202;2023-01-28T04:21:31;21.40;44.70
66057;DHT22;52842;52.666;5.202;2023-01-28T04:23:57;21.40;44.60
66057;DHT22;52842;52.666;5.202;2023-01-28T04:26:24;21.50;44.70
66057;DHT22;52842;52.666;5.202;2023-01-28T04:28:51;21.40;44.70
66057;DHT22;52842;52.666;5.202;2023-01-28T04:31:17;21.50;44.70
66057;DHT22;52842;52.666;5.202;2023-01-28T04:33:44;21.50;44.70
66057;DHT22;52842;52.666;5.202;2023-01-28T04:36:11;21.50;44.70
66057;DHT22;52842;52.666;5.202;2023-01-28T04:38:38;21.50;44.70
66057;DHT22;52842;52.666;5.202;2023-01-28T04:41:05;21.50;44.70
66057;DHT22;52842;52.666;5.202;2023-01-28T04:43:32;21.40;44.60
66057;DHT22;52842;52.666;5.202;2023-01-28T04:45:58;21.50;44.60
66057;DHT22;52842;52.666;5.202;2023-01-28T04:48:25;21.50;44.50
66057;DHT22;52842;52.666;5.202;2023-01-28T04:50:52;21.50;44.60
66057;DHT22;52842;52.666;5.202;2023-01-28T04:53:18;21.50;44.50
66057;DHT22;52842;52.666;5.202;2023-01-28T04:55:46;21.50;44.50
66057;DHT22;52842;52.666;5.202;2023-01-28T04:58:13;21.50;44.50
66057;DHT22;52842;52.666;5.202;2023-01-28T05:00:40;21.50;44.50
66057;DHT22;52842;52.666;5.202;2023-01-28T05:03:06;21.50;44.50
66057;DHT22;52842;52.666;5.202;2023-01-28T05:05:33;21.50;44.50
66057;DHT22;52842;52.666;5.202;2023-01-28T05:08:00;21.50;44.50
66057;DHT22;52842;52.666;5.202;2023-01-28T05:10:26;21.50;44.50
66057;DHT22;52842;52.666;5.202;2023-01-28T05:12:54;21.50;44.50
66057;DHT22;52842;52.666;5.202;2023-01-28T05:15:21;21.50;44.50
66057;DHT22;52842;52.666;5.202;2023-01-28T05:17:48;21.50;44.60
66057;DHT22;52842;52.666;5.202;2023-01-28T05:20:15;21.40;44.60
66057;DHT22;52842;52.666;5.202;2023-01-28T05:22:41;21.40;44.70
66057;DHT22;52842;52.666;5.202;2023-01-28T05:25:08;21.40;44.70
66057;DHT22;52842;52.666;5.202;2023-01-28T05:27:35;21.40;44.70
66057;DHT22;52842;52.666;5.202;2023-01-28T05:30:03;21.40;44.70
66057;DHT22;52842;52.666;5.202;2023-01-28T05:32:31;21.40;44.70
66057;DHT22;52842;52.666;5.202;2023-01-28T05:34:58;21.40;44.80
66057;DHT22;52842;52.666;5.202;2023-01-28T05:37:24;21.40;44.80
66057;DHT22;52842;52.666;5.202;2023-01-28T05:39:51;21.40;44.80
66057;DHT22;52842;52.666;5.202;2023-01-28T05:42:17;21.30;44.70
66057;DHT22;52842;52.666;5.202;2023-01-28T05:44:46;21.30;44.70
66057;DHT22;52842;52.666;5.202;2023-01-28T05:47:14;21.30;44.70
66057;DHT22;52842;52.666;5.202;2023-01-28T05:49:41;21.40;44.80
66057;DHT22;52842;52.666;5.202;2023-01-28T05:52:08;21.30;44.70
66057;DHT22;52842;52.666;5.202;2023-01-28T05:54:34;21.30;44.70
66057;DHT22;52842;52.666;5.202;2023-01-28T05:57:01;21.30;44.70
66057;DHT22;52842;52.666;5.202;2023-01-28T05:59:28;21.40;44.80
66057;DHT22;52842;52.666;5.202;2023-01-28T06:01:54;21.30;44.70
66057;DHT22;52842;52.666;5.202;2023-01-28T06:04:22;21.30;44.70
66057;DHT22;52842;52.666;5.202;2023-01-28T06:06:49;21.30;44.70
66057;DHT22;52842;52.666;5.202;2023-01-28T06:09:16;21.30;44.70
66057;DHT22;52842;52.666;5.202;2023-01-28T06:11:42;21.40;44.80
66057;DHT22;52842;52.666;5.202;2023-01-28T06:14:10;21.30;44.70
66057;DHT22;52842;52.666;5.202;2023-01-28T06:16:36;21.30;44.80
66057;DHT22;52842;52.666;5.202;2023-01-28T06:19:03;21.40;44.70
66057;DHT22;52842;52.666;5.202;2023-01-28T06:21:31;21.30;44.70
66057;DHT22;52842;52.666;5.202;2023-01-28T06:23:58;21.30;44.70
66057;DHT22;52842;52.666;5.202;2023-01-28T06:26:24;21.30;44.70
66057;DHT22;52842;52.666;5.202;2023-01-28T06:28:51;21.30;44.70
66057;DHT22;52842;52.666;5.202;2023-01-28T06:31:18;21.30;44.70
66057;DHT22;52842;52.666;5.202;2023-01-28T06:33:44;21.30;44.80
66057;DHT22;52842;52.666;5.202;2023-01-28T06:36:11;21.30;44.90
66057;DHT22;52842;52.666;5.202;2023-01-28T06:38:39;21.30;44.90
66057;DHT22;52842;52.666;5.202;2023-01-28T06:41:06;21.30;44.90
66057;DHT22;52842;52.666;5.202;2023-01-28T06:43:32;21.30;44.80
66057;DHT22;52842;52.666;5.202;2023-01-28T06:45:59;21.30;44.80
66057;DHT22;52842;52.666;5.202;2023-01-28T06:48:26;21.30;44.80
66057;DHT22;52842;52.666;5.202;2023-01-28T06:50:53;21.30;44.80
66057;DHT22;52842;52.666;5.202;2023-01-28T06:53:20;21.30;44.80
66057;DHT22;52842;52.666;5.202;2023-01-28T06:55:48;21.30;44.80
66057;DHT22;52842;52.666;5.202;2023-01-28T06:58:15;21.30;44.80
66057;DHT22;52842;52.666;5.202;2023-01-28T07:00:42;21.30;44.80
66057;DHT22;52842;52.666;5.202;2023-01-28T07:03:08;21.30;44.70
66057;DHT22;52842;52.666;5.202;2023-01-28T07:05:35;21.30;44.70
66057;DHT22;52842;52.666;5.202;2023-01-28T07:08:03;21.30;44.70
66057;DHT22;52842;52.666;5.202;2023-01-28T07:10:29;21.30;44.70
66057;DHT22;52842;52.666;5.202;2023-01-28T07:12:57;21.30;44.80
66057;DHT22;52842;52.666;5.202;2023-01-28T07:15:24;21.30;44.70
66057;DHT22;52842;52.666;5.202;2023-01-28T07:17:51;21.30;44.70
66057;DHT22;52842;52.666;5.202;2023-01-28T07:20:17;21.30;44.70
66057;DHT22;52842;52.666;5.202;2023-01-28T07:22:44;21.30;44.70
66057;DHT22;52842;52.666;5.202;2023-01-28T07:25:11;21.30;44.70
66057;DHT22;52842;52.666;5.202;2023-01-28T07:27:38;21.20;44.80
66057;DHT22;52842;52.666;5.202;2023-01-28T07:30:07;21.30;44.90
66057;DHT22;52842;52.666;5.202;2023-01-28T07:32:34;21.30;45.10
66057;DHT22;52842;52.666;5.202;2023-01-28T07:35:00;21.30;45.20
66057;DHT22;52842;52.666;5.202;2023-01-28T07:37:27;21.30;45.30
66057;DHT22;52842;52.666;5.202;2023-01-28T07:39:54;21.40;45.50
66057;DHT22;52842;52.666;5.202;2023-01-28T07:42:20;21.40;45.60
66057;DHT22;52842;52.666;5.202;2023-01-28T07:44:47;21.40;45.50
66057;DHT22;52842;52.666;5.202;2023-01-28T07:47:15;21.50;45.60
66057;DHT22;52842;52.666;5.202;2023-01-28T07:49:43;21.50;45.70
66057;DHT22;52842;52.666;5.202;2023-01-28T07:52:10;21.50;45.60
66057;DHT22;52842;52.666;5.202;2023-01-28T07:54:37;21.60;45.60
66057;DHT22;52842;52.666;5.202;2023-01-28T07:57:06;21.60;45.70
66057;DHT22;52842;52.666;5.202;2023-01-28T07:59:34;21.60;45.70
66057;DHT22;52842;52.666;5.202;2023-01-28T08:02:00;21.60;45.70
66057;DHT22;52842;52.666;5.202;2023-01-28T08:04:29;21.60;45.80
66057;DHT22;52842;52.666;5.202;2023-01-28T08:06:55;21.60;45.90
66057;DHT22;52842;52.666;5.202;2023-01-28T08:09:22;21.70;45.90
66057;DHT22;52842;52.666;5.202;2023-01-28T08:11:49;21.70;46.00
66057;DHT22;52842;52.666;5.202;2023-01-28T08:14:16;21.70;46.30
66057;DHT22;52842;52.666;5.202;2023-01-28T08:16:42;21.70;46.70
66057;DHT22;52842;52.666;5.202;2023-01-28T08:19:09;21.60;47.10
66057;DHT22;52842;52.666;5.202;2023-01-28T08:21:37;21.60;47.20
66057;DHT22;52842;52.666;5.202;2023-01-28T08:24:04;21.60;47.20
66057;DHT22;52842;52.666;5.202;2023-01-28T08:26:31;21.50;47.40
66057;DHT22;52842;52.666;5.202;2023-01-28T08:28:57;21.20;47.40
66057;DHT22;52842;52.666;5.202;2023-01-28T08:31:24;21.00;48.00
66057;DHT22;52842;52.666;5.202;2023-01-28T08:33:51;20.70;48.50
66057;DHT22;52842;52.666;5.202;2023-01-28T08:36:17;20.40;49.10
66057;DHT22;52842;52.666;5.202;2023-01-28T08:38:46;20.10;49.50
66057;DHT22;52842;52.666;5.202;2023-01-28T08:41:12;19.90;50.00
66057;DHT22;52842;52.666;5.202;2023-01-28T08:43:39;19.70;50.40
66057;DHT22;52842;52.666;5.202;2023-01-28T08:46:06;19.50;50.80
66057;DHT22;52842;52.666;5.202;2023-01-28T08:48:32;19.40;51.50
66057;DHT22;52842;52.666;5.202;2023-01-28T08:50:59;19.30;52.30
66057;DHT22;52842;52.666;5.202;2023-01-28T08:53:26;19.20;51.80
66057;DHT22;52842;52.666;5.202;2023-01-28T08:55:54;19.10;51.80
66057;DHT22;52842;52.666;5.202;2023-01-28T08:58:20;19.10;52.20
66057;DHT22;52842;52.666;5.202;2023-01-28T09:00:47;19.30;52.20
66057;DHT22;52842;52.666;5.202;2023-01-28T09:03:14;19.50;51.40
66057;DHT22;52842;52.666;5.202;2023-01-28T09:05:41;19.60;50.50
66057;DHT22;52842;52.666;5.202;2023-01-28T09:08:08;19.60;50.60
66057;DHT22;52842;52.666;5.202;2023-01-28T09:10:35;19.40;50.80
66057;DHT22;52842;52.666;5.202;2023-01-28T09:13:07;19.20;51.20
66057;DHT22;52842;52.666;5.202;2023-01-28T09:15:34;19.10;51.60
66057;DHT22;52842;52.666;5.202;2023-01-28T09:18:01;18.90;52.10
66057;DHT22;52842;52.666;5.202;2023-01-28T09:20:28;18.80;52.50
66057;DHT22;52842;52.666;5.202;2023-01-28T09:22:57;18.70;52.80
66057;DHT22;52842;52.666;5.202;2023-01-28T09:25:23;18.60;53.20
66057;DHT22;52842;52.666;5.202;2023-01-28T09:27:50;18.50;53.90
66057;DHT22;52842;52.666;5.202;2023-01-28T09:30:18;18.40;54.40
66057;DHT22;52842;52.666;5.202;2023-01-28T09:32:48;18.30;54.80
66057;DHT22;52842;52.666;5.202;2023-01-28T09:35:14;18.20;55.00
66057;DHT22;52842;52.666;5.202;2023-01-28T09:37:42;18.10;55.30
66057;DHT22;52842;52.666;5.202;2023-01-28T09:40:10;18.10;55.40
66057;DHT22;52842;52.666;5.202;2023-01-28T09:45:24;18.00;55.60
66057;DHT22;52842;52.666;5.202;2023-01-28T09:47:53;17.90;55.60
66057;DHT22;52842;52.666;5.202;2023-01-28T09:50:22;17.80;55.60
66057;DHT22;52842;52.666;5.202;2023-01-28T09:52:51;17.80;55.80
66057;DHT22;52842;52.666;5.202;2023-01-28T09:55:22;17.70;56.00
66057;DHT22;52842;52.666;5.202;2023-01-28T09:57:50;17.70;56.30
66057;DHT22;52842;52.666;5.202;2023-01-28T10:00:18;17.60;56.50
66057;DHT22;52842;52.666;5.202;2023-01-28T10:02:57;17.60;56.80
66057;DHT22;52842;52.666;5.202;2023-01-28T10:05:28;17.50;57.10
66057;DHT22;52842;52.666;5.202;2023-01-28T10:07:58;17.50;57.50
66057;DHT22;52842;52.666;5.202;2023-01-28T10:10:28;17.50;57.70
66057;DHT22;52842;52.666;5.202;2023-01-28T10:12:58;17.40;58.00
66057;DHT22;52842;52.666;5.202;2023-01-28T10:15:29;17.40;58.20
66057;DHT22;52842;52.666;5.202;2023-01-28T10:18:01;17.40;58.30
66057;DHT22;52842;52.666;5.202;2023-01-28T10:20:30;17.40;58.60
66057;DHT22;52842;52.666;5.202;2023-01-28T10:23:01;17.30;58.70
66057;DHT22;52842;52.666;5.202;2023-01-28T10:25:30;17.30;58.90
66057;DHT22;52842;52.666;5.202;2023-01-28T10:27:57;17.30;58.90
66057;DHT22;52842;52.666;5.202;2023-01-28T10:30:27;17.30;59.00
66057;DHT22;52842;52.666;5.202;2023-01-28T10:32:55;17.20;59.00
66057;DHT22;52842;52.666;5.202;2023-01-28T10:35:25;17.20;59.50
66057;DHT22;52842;52.666;5.202;2023-01-28T10:37:55;17.20;59.00
66057;DHT22;52842;52.666;5.202;2023-01-28T10:40:25;17.20;59.30
66057;DHT22;52842;52.666;5.202;2023-01-28T10:42:52;17.20;59.60
66057;DHT22;52842;52.666;5.202;2023-01-28T10:45:20;17.10;59.70
66057;DHT22;52842;52.666;5.202;2023-01-28T10:47:48;17.10;59.90
66057;DHT22;52842;52.666;5.202;2023-01-28T10:50:16;17.10;60.00
66057;DHT22;52842;52.666;5.202;2023-01-28T10:52:53;17.10;60.00
66057;DHT22;52842;52.666;5.202;2023-01-28T10:55:20;17.10;60.00
66057;DHT22;52842;52.666;5.202;2023-01-28T10:57:48;17.10;60.10
66057;DHT22;52842;52.666;5.202;2023-01-28T11:00:21;17.00;60.20
66057;DHT22;52842;52.666;5.202;2023-01-28T11:02:48;17.00;60.10
66057;DHT22;52842;52.666;5.202;2023-01-28T11:05:15;17.00;60.00
66057;DHT22;52842;52.666;5.202;2023-01-28T11:07:43;17.00;60.30
66057;DHT22;52842;52.666;5.202;2023-01-28T11:10:28;17.00;60.50
66057;DHT22;52842;52.666;5.202;2023-01-28T11:12:57;17.00;60.90
66057;DHT22;52842;52.666;5.202;2023-01-28T11:15:24;17.00;61.10
66057;DHT22;52842;52.666;5.202;2023-01-28T11:17:52;16.90;61.20
66057;DHT22;52842;52.666;5.202;2023-01-28T11:20:21;16.90;61.40
66057;DHT22;52842;52.666;5.202;2023-01-28T11:22:49;16.90;61.60
66057;DHT22;52842;52.666;5.202;2023-01-28T11:25:17;16.90;61.60
66057;DHT22;52842;52.666;5.202;2023-01-28T11:27:47;16.90;61.70
66057;DHT22;52842;52.666;5.202;2023-01-28T11:30:19;16.90;61.90
66057;DHT22;52842;52.666;5.202;2023-01-28T11:32:52;16.90;62.10
66057;DHT22;52842;52.666;5.202;2023-01-28T11:35:25;16.80;62.10
66057;DHT22;52842;52.666;5.202;2023-01-28T11:37:54;16.80;62.20
66057;DHT22;52842;52.666;5.202;2023-01-28T11:40:21;16.80;62.30
66057;DHT22;52842;52.666;5.202;2023-01-28T11:42:50;16.80;62.30
66057;DHT22;52842;52.666;5.202;2023-01-28T11:45:18;16.80;62.30
66057;DHT22;52842;52.666;5.202;2023-01-28T11:47:51;16.80;62.20
66057;DHT22;52842;52.666;5.202;2023-01-28T11:50:21;16.80;61.90
66057;DHT22;52842;52.666;5.202;2023-01-28T11:52:53;16.70;61.80
66057;DHT22;52842;52.666;5.202;2023-01-28T11:55:34;16.70;61.80
66057;DHT22;52842;52.666;5.202;2023-01-28T11:58:05;16.70;61.80
66057;DHT22;52842;52.666;5.202;2023-01-28T12:00:37;16.70;61.90
66057;DHT22;52842;52.666;5.202;2023-01-28T12:03:20;16.60;62.00
66057;DHT22;52842;52.666;5.202;2023-01-28T12:05:50;16.70;62.00
66057;DHT22;52842;52.666;5.202;2023-01-28T12:08:19;16.60;62.00
66057;DHT22;52842;52.666;5.202;2023-01-28T12:10:50;16.60;62.20
66057;DHT22;52842;52.666;5.202;2023-01-28T12:13:27;16.60;62.20
66057;DHT22;52842;52.666;5.202;2023-01-28T12:16:02;16.60;62.30
66057;DHT22;52842;52.666;5.202;2023-01-28T12:21:22;16.50;62.20
66057;DHT22;52842;52.666;5.202;2023-01-28T12:23:59;16.50;62.00
66057;DHT22;52842;52.666;5.202;2023-01-28T12:26:33;16.50;62.10
66057;DHT22;52842;52.666;5.202;2023-01-28T12:29:07;16.50;62.30
66057;DHT22;52842;52.666;5.202;2023-01-28T12:31:42;16.50;62.80
66057;DHT22;52842;52.666;5.202;2023-01-28T12:34:22;16.50;63.50
66057;DHT22;52842;52.666;5.202;2023-01-28T12:36:53;16.40;64.20
66057;DHT22;52842;52.666;5.202;2023-01-28T12:39:26;16.40;64.80
66057;DHT22;52842;52.666;5.202;2023-01-28T12:42:01;16.40;65.30
66057;DHT22;52842;52.666;5.202;2023-01-28T12:44:31;16.40;65.60
66057;DHT22;52842;52.666;5.202;2023-01-28T12:47:00;16.50;65.90
66057;DHT22;52842;52.666;5.202;2023-01-28T12:49:28;16.50;66.10
66057;DHT22;52842;52.666;5.202;2023-01-28T12:51:57;16.50;66.20
66057;DHT22;52842;52.666;5.202;2023-01-28T12:54:26;16.50;66.20
66057;DHT22;52842;52.666;5.202;2023-01-28T12:56:54;16.50;66.00
66057;DHT22;52842;52.666;5.202;2023-01-28T12:59:23;16.50;65.90
66057;DHT22;52842;52.666;5.202;2023-01-28T13:01:55;16.50;65.60
66057;DHT22;52842;52.666;5.202;2023-01-28T13:04:24;16.50;65.30
66057;DHT22;52842;52.666;5.202;2023-01-28T13:06:54;16.60;65.10
66057;DHT22;52842;52.666;5.202;2023-01-28T13:09:24;16.60;64.70
66057;DHT22;52842;52.666;5.202;2023-01-28T13:11:52;16.60;64.30
66057;DHT22;52842;52.666;5.202;2023-01-28T13:14:21;16.60;64.20
66057;DHT22;52842;52.666;5.202;2023-01-28T13:16:49;16.70;63.40
66057;DHT22;52842;52.666;5.202;2023-01-28T13:19:23;16.80;63.20
66057;DHT22;52842;52.666;5.202;2023-01-28T13:21:50;17.00;62.30
66057;DHT22;52842;52.666;5.202;2023-01-28T13:27:09;18.40;59.60
66057;DHT22;52842;52.666;5.202;2023-01-28T13:29:36;19.10;57.80
66057;DHT22;52842;52.666;5.202;2023-01-28T13:34:55;20.00;55.40
66057;DHT22;52842;52.666;5.202;2023-01-28T13:37:23;20.40;54.20
66057;DHT22;52842;52.666;5.202;2023-01-28T13:39:54;20.70;53.60
66057;DHT22;52842;52.666;5.202;2023-01-28T13:42:24;21.00;52.70
66057;DHT22;52842;52.666;5.202;2023-01-28T13:44:51;21.20;52.20
66057;DHT22;52842;52.666;5.202;2023-01-28T13:47:26;21.30;52.00
66057;DHT22;52842;52.666;5.202;2023-01-28T13:49:55;21.30;51.90
66057;DHT22;52842;52.666;5.202;2023-01-28T13:52:24;21.20;51.60
66057;DHT22;52842;52.666;5.202;2023-01-28T13:54:53;21.20;51.60
66057;DHT22;52842;52.666;5.202;2023-01-28T13:57:34;21.30;51.50
66057;DHT22;52842;52.666;5.202;2023-01-28T14:00:07;21.30;51.40
66057;DHT22;52842;52.666;5.202;2023-01-28T14:02:50;21.40;51.60
66057;DHT22;52842;52.666;5.202;2023-01-28T14:05:32;21.30;51.70
66057;DHT22;52842;52.666;5.202;2023-01-28T14:08:25;21.30;52.00
66057;DHT22;52842;52.666;5.202;2023-01-28T14:11:00;21.20;51.80
66057;DHT22;52842;52.666;5.202;2023-01-28T14:13:36;21.30;51.80
66057;DHT22;52842;52.666;5.202;2023-01-28T14:18:54;21.30;51.80
66057;DHT22;52842;52.666;5.202;2023-01-28T14:21:24;21.30;51.70
66057;DHT22;52842;52.666;5.202;2023-01-28T14:23:52;21.30;51.60
66057;DHT22;52842;52.666;5.202;2023-01-28T14:26:25;21.30;51.60
66057;DHT22;52842;52.666;5.202;2023-01-28T14:28:57;21.40;51.50
66057;DHT22;52842;52.666;5.202;2023-01-28T14:31:29;21.30;51.30
66057;DHT22;52842;52.666;5.202;2023-01-28T14:33:57;21.40;51.10
66057;DHT22;52842;52.666;5.202;2023-01-28T14:36:30;21.30;51.00
66057;DHT22;52842;52.666;5.202;2023-01-28T14:38:57;21.20;51.10
66057;DHT22;52842;52.666;5.202;2023-01-28T14:41:24;20.90;51.40
66057;DHT22;52842;52.666;5.202;2023-01-28T14:43:52;20.60;52.00
66057;DHT22;52842;52.666;5.202;2023-01-28T14:46:23;20.30;52.70
66057;DHT22;52842;52.666;5.202;2023-01-28T14:48:55;20.00;53.00
66057;DHT22;52842;52.666;5.202;2023-01-28T14:51:35;19.70;53.00
66057;DHT22;52842;52.666;5.202;2023-01-28T14:54:08;19.60;53.60
66057;DHT22;52842;52.666;5.202;2023-01-28T14:56:40;19.40;54.10
66057;DHT22;52842;52.666;5.202;2023-01-28T14:59:13;19.20;54.80
66057;DHT22;52842;52.666;5.202;2023-01-28T15:01:42;19.00;55.30
66057;DHT22;52842;52.666;5.202;2023-01-28T15:04:19;18.90;55.70
66057;DHT22;52842;52.666;5.202;2023-01-28T15:06:48;18.80;56.10
66057;DHT22;52842;52.666;5.202;2023-01-28T15:09:15;18.70;56.40
66057;DHT22;52842;52.666;5.202;2023-01-28T15:11:42;18.60;56.70
66057;DHT22;52842;52.666;5.202;2023-01-28T15:14:11;18.50;56.90
66057;DHT22;52842;52.666;5.202;2023-01-28T15:16:39;18.40;57.00
66057;DHT22;52842;52.666;5.202;2023-01-28T15:19:06;18.30;57.20
66057;DHT22;52842;52.666;5.202;2023-01-28T15:21:33;18.20;57.30
66057;DHT22;52842;52.666;5.202;2023-01-28T15:24:02;18.20;57.50
66057;DHT22;52842;52.666;5.202;2023-01-28T15:26:30;18.10;57.60
66057;DHT22;52842;52.666;5.202;2023-01-28T15:28:57;18.10;57.80
66057;DHT22;52842;52.666;5.202;2023-01-28T15:31:25;18.00;57.90
66057;DHT22;52842;52.666;5.202;2023-01-28T15:33:56;17.90;57.90
66057;DHT22;52842;52.666;5.202;2023-01-28T15:36:22;17.90;58.00
66057;DHT22;52842;52.666;5.202;2023-01-28T15:38:50;17.90;58.20
66057;DHT22;52842;52.666;5.202;2023-01-28T15:41:19;17.80;58.30
66057;DHT22;52842;52.666;5.202;2023-01-28T15:43:47;17.80;58.30
66057;DHT22;52842;52.666;5.202;2023-01-28T15:46:14;17.70;58.40
66057;DHT22;52842;52.666;5.202;2023-01-28T15:48:41;17.70;58.00
66057;DHT22;52842;52.666;5.202;2023-01-28T15:51:15;17.70;58.00
66057;DHT22;52842;52.666;5.202;2023-01-28T15:53:44;17.70;58.20
66057;DHT22;52842;52.666;5.202;2023-01-28T15:56:12;17.70;58.30